Weather History for Newton, IA

Change the Weather History Date:

Saturday, February 22, 2014

  Actual Average Record
Temperature  
Mean Temperature 22 °F -  
Max Temperature 26 °F 39 °F 63 °F (1982)
Min Temperature 17 °F 21 °F 0 °F (1972)
Degree Days  
Heating Degree Days 44    
Moisture  
Dew Point 13 °F    
Average Humidity 66    
Maximum Humidity 93    
Minimum Humidity 51    
Precipitation  
Precipitation 0.00 in - - ()
Sea Level Pressure  
Sea Level Pressure 30.03 in    
Wind  
Wind Speed 7 mph (North)    
Max Wind Speed 14 mph    
Max Gust Speed 17 mph    
Visibility 10 miles    
Events      
Averages and records for this station are not official NWS values.
T = Trace of Precipitation, MM = Missing Value Source: NWS Daily Summary

Daily Weather History Graph

Daily Weather History Graph

Search for Another Location

Airport:

Trip Planner

Search our weather history database for the weather conditions in past years. The results will help you decide how hot, cold, wet, or windy it might be!

Date:

Astronomy

Feb. 22, 2014 Rise Set
Actual Time 6:57 AM CST 5:54 PM CST
Civil Twilight 6:29 AM CST 6:22 PM CST
Nautical Twilight 5:57 AM CST 6:54 PM CST
Astronomical Twilight 5:25 AM CST 7:26 PM CST
Moon 12:55 AM CST (2/22) 11:03 AM CST (2/22)
Length of Visible Light 11h 52m
Length of Day
10h 56m
Waning Gibbous, 50% of the Moon is Illuminated
Feb 22
Waning Gibbous
Mar 1
New
Mar 8
First Quarter
Mar 16
Full
Mar 23
Last Quarter

Hourly Weather History & Observations

Time (CST) Temp. Windchill Dew Point Humidity Pressure Visibility Wind Dir Wind Speed Gust Speed Precip Events Conditions
12:15 AM 26.6 °F 22.6 °F 23.0 °F 86% 29.88 in 10.0 mi WNW 3.5 mph - N/A   Clear
12:35 AM 26.6 °F 21.2 °F 23.0 °F 86% 29.88 in 10.0 mi WNW 4.6 mph - N/A   Clear
12:55 AM 26.6 °F 21.2 °F 23.0 °F 86% 29.89 in 10.0 mi WNW 4.6 mph - N/A   Clear
1:15 AM 26.6 °F 22.6 °F 23.0 °F 86% 29.89 in 10.0 mi WNW 3.5 mph - N/A   Clear
1:35 AM 26.6 °F 20.0 °F 23.0 °F 86% 29.90 in 10.0 mi NNW 5.8 mph - N/A   Clear
1:55 AM 26.6 °F 20.0 °F 23.0 °F 86% 29.91 in 10.0 mi NNW 5.8 mph - N/A   Clear
2:15 AM 24.8 °F 19.1 °F 23.0 °F 93% 29.91 in 10.0 mi NNW 4.6 mph - N/A   Clear
2:35 AM 24.8 °F 16.9 °F 21.2 °F 86% 29.91 in 10.0 mi NNW 6.9 mph - N/A   Clear
2:55 AM 24.8 °F 17.9 °F 19.4 °F 80% 29.91 in 10.0 mi North 5.8 mph - N/A   Scattered Clouds
3:15 AM 24.8 °F 20.5 °F 19.4 °F 80% 29.91 in 10.0 mi NNW 3.5 mph - N/A   Mostly Cloudy
3:35 AM 24.8 °F 19.1 °F 19.4 °F 80% 29.92 in 10.0 mi NNW 4.6 mph - N/A   Mostly Cloudy
3:55 AM 24.8 °F 14.6 °F 15.8 °F 69% 29.92 in 10.0 mi North 10.4 mph - N/A   Mostly Cloudy
4:15 AM 24.8 °F 14.0 °F 14.0 °F 64% 29.92 in 10.0 mi North 11.5 mph - N/A   Overcast
4:35 AM 24.8 °F 14.6 °F 12.2 °F 59% 29.93 in 10.0 mi NNW 10.4 mph - N/A   Overcast
4:55 AM 24.8 °F 17.9 °F 14.0 °F 64% 29.95 in 10.0 mi NW 5.8 mph 12.7 mph N/A   Overcast
5:15 AM 24.8 °F 17.9 °F 12.2 °F 59% 29.96 in 10.0 mi NW 5.8 mph - N/A   Overcast
5:35 AM 24.8 °F 15.3 °F 12.2 °F 59% 29.96 in 10.0 mi North 9.2 mph - N/A   Mostly Cloudy
5:55 AM 24.8 °F 16.1 °F 12.2 °F 59% 29.96 in 10.0 mi North 8.1 mph - N/A   Overcast
6:15 AM 24.8 °F 16.9 °F 12.2 °F 59% 29.97 in 10.0 mi North 6.9 mph - N/A   Overcast
6:35 AM 24.8 °F 15.3 °F 12.2 °F 59% 29.96 in 10.0 mi North 9.2 mph - N/A   Overcast
6:55 AM 24.8 °F 15.3 °F 10.4 °F 54% 29.97 in 10.0 mi North 9.2 mph - N/A   Overcast
7:15 AM 24.8 °F 16.9 °F 12.2 °F 59% 29.98 in 10.0 mi North 6.9 mph - N/A   Overcast
7:35 AM 24.8 °F 17.9 °F 12.2 °F 59% 29.99 in 10.0 mi North 5.8 mph - N/A   Overcast
7:55 AM 24.8 °F 17.9 °F 14.0 °F 64% 29.99 in 10.0 mi North 5.8 mph - N/A   Overcast
8:15 AM 23.0 °F 13.1 °F 12.2 °F 63% 30.00 in 10.0 mi North 9.2 mph - N/A   Overcast
8:35 AM 23.0 °F 13.1 °F 12.2 °F 63% 30.02 in 10.0 mi North 9.2 mph - N/A   Overcast
8:55 AM 23.0 °F 14.7 °F 12.2 °F 63% 30.03 in 10.0 mi North 6.9 mph - N/A   Overcast
9:15 AM 23.0 °F 13.9 °F 8.6 °F 54% 30.03 in 10.0 mi NNW 8.1 mph - N/A   Overcast
9:35 AM 23.0 °F 13.9 °F 10.4 °F 59% 30.04 in 10.0 mi North 8.1 mph - N/A   Overcast
9:55 AM 23.0 °F 15.8 °F 12.2 °F 63% 30.05 in 10.0 mi North 5.8 mph 11.5 mph N/A   Overcast
10:15 AM 24.8 °F - 12.2 °F 59% 30.05 in 10.0 mi Calm Calm - N/A   Overcast
10:35 AM 24.8 °F - 12.2 °F 59% 30.06 in 10.0 mi Calm Calm - N/A   Overcast
10:55 AM 24.8 °F 16.9 °F 12.2 °F 59% 30.04 in 10.0 mi NNE 6.9 mph - N/A   Mostly Cloudy
11:15 AM 24.8 °F 13.4 °F 12.2 °F 59% 30.04 in 10.0 mi North 12.7 mph - N/A   Partly Cloudy
11:35 AM 24.8 °F 14.0 °F 10.4 °F 54% 30.05 in 10.0 mi North 11.5 mph - N/A   Clear
11:55 AM 24.8 °F 16.9 °F 10.4 °F 54% 30.06 in 10.0 mi North 6.9 mph 12.7 mph N/A   Clear
12:15 PM 24.8 °F 16.1 °F 10.4 °F 54% 30.05 in 10.0 mi North 8.1 mph - N/A   Clear
12:35 PM 26.6 °F 15.2 °F 10.4 °F 51% 30.04 in 10.0 mi North 13.8 mph - N/A   Mostly Cloudy
12:55 PM 26.6 °F 17.5 °F 10.4 °F 51% 30.04 in 10.0 mi North 9.2 mph - N/A   Partly Cloudy
1:10 PM 26.6 °F 15.2 °F 10.4 °F 51% 30.03 in 10.0 mi North 13.8 mph - N/A   Clear
1:35 PM 26.6 °F 17.5 °F 12.2 °F 55% 30.04 in 10.0 mi North 9.2 mph - N/A   Clear
1:55 PM 26.6 °F 18.2 °F 12.2 °F 55% 30.04 in 10.0 mi North 8.1 mph - N/A   Clear
2:15 PM 26.6 °F 16.8 °F 12.2 °F 55% 30.04 in 10.0 mi North 10.4 mph - N/A   Clear
2:35 PM 26.6 °F 16.2 °F 14.0 °F 59% 30.04 in 10.0 mi North 11.5 mph - N/A   Clear
2:55 PM 26.6 °F 17.5 °F 14.0 °F 59% 30.05 in 10.0 mi North 9.2 mph - N/A   Clear
3:15 PM 26.6 °F 16.8 °F 12.2 °F 55% 30.05 in - North 10.4 mph - N/A   Clear
3:35 PM 24.8 °F 14.6 °F 14.0 °F 64% 30.05 in 10.0 mi North 10.4 mph - N/A   Clear
3:55 PM 24.8 °F 14.6 °F 14.0 °F 64% 30.05 in 10.0 mi North 10.4 mph - N/A   Clear
4:15 PM 24.8 °F 14.0 °F 14.0 °F 64% 30.05 in 10.0 mi North 11.5 mph - N/A   Clear
4:35 PM 24.8 °F 15.3 °F 12.2 °F 59% 30.06 in 10.0 mi North 9.2 mph - N/A   Clear
4:55 PM 24.8 °F 15.3 °F 12.2 °F 59% 30.07 in 10.0 mi North 9.2 mph - N/A   Clear
5:15 PM 24.8 °F 15.3 °F 12.2 °F 59% 30.07 in 10.0 mi North 9.2 mph 17.3 mph N/A   Clear
5:35 PM 24.8 °F 14.0 °F 10.4 °F 54% 30.08 in 10.0 mi NNW 11.5 mph - N/A   Clear
5:50 PM 23.0 °F 13.9 °F 12.2 °F 63% 30.09 in 10.0 mi North 8.1 mph - N/A   Clear
6:15 PM 23.0 °F 13.9 °F 10.4 °F 59% 30.09 in 10.0 mi North 8.1 mph - N/A   Clear
6:35 PM 21.2 °F 11.7 °F 10.4 °F 63% 30.10 in 10.0 mi North 8.1 mph - N/A   Clear
6:55 PM 21.2 °F 13.6 °F 12.2 °F 68% 30.10 in 10.0 mi North 5.8 mph - N/A   Clear
7:15 PM 21.2 °F 11.7 °F 12.2 °F 68% 30.11 in 10.0 mi North 8.1 mph - N/A   Clear
7:35 PM 21.2 °F 13.6 °F 12.2 °F 68% 30.12 in 10.0 mi North 5.8 mph - N/A   Clear
7:55 PM 19.4 °F 9.5 °F 12.2 °F 74% 30.13 in 10.0 mi North 8.1 mph - N/A   Clear
8:15 PM 19.4 °F 9.5 °F 12.2 °F 74% 30.14 in 10.0 mi North 8.1 mph - N/A   Clear
8:35 PM 19.4 °F 9.5 °F 12.2 °F 74% 30.14 in 10.0 mi North 8.1 mph - N/A   Clear
8:55 PM 19.4 °F 10.4 °F 12.2 °F 74% 30.14 in 10.0 mi North 6.9 mph - N/A   Clear
9:15 PM 19.4 °F 11.5 °F 12.2 °F 74% 30.14 in 10.0 mi North 5.8 mph - N/A   Clear
9:35 PM 17.6 °F 12.3 °F 12.2 °F 79% 30.14 in 10.0 mi North 3.5 mph - N/A   Clear
9:55 PM 17.6 °F 9.3 °F 12.2 °F 79% 30.14 in 10.0 mi North 5.8 mph - N/A   Clear
10:15 PM 19.4 °F 10.4 °F 12.2 °F 74% 30.15 in 10.0 mi North 6.9 mph - N/A   Clear
10:35 PM 19.4 °F 10.4 °F 12.2 °F 74% 30.15 in 10.0 mi North 6.9 mph - N/A   Clear
10:55 PM 19.4 °F 8.6 °F 10.4 °F 68% 30.16 in 10.0 mi North 9.2 mph - N/A   Clear
11:15 PM 19.4 °F 7.9 °F 10.4 °F 68% 30.17 in 10.0 mi North 10.4 mph - N/A   Partly Cloudy
11:35 PM 19.4 °F 7.2 °F 10.4 °F 68% 30.15 in 10.0 mi North 11.5 mph - N/A   Clear
11:55 PM 19.4 °F 9.5 °F 10.4 °F 68% 30.17 in - North 8.1 mph - N/A   Clear